Latrobe, PA

10:57 AM EST on December 25, 2014 (GMT -0500)
Allegheny County | Change Station
CLOSE
Current Station
Airport
Location: Pittsburgh Allegheny Co.,
Elevation: 1253 ft
Nearby Weather Stations

Elev 1253 ft 40.35 °N, 79.92 °W | Updated 4 minutes ago

Overcast
Overcast
39 °F
Feels Like 32 °F
N
10
Wind Variable Wind from West
Gusts 22 mph

Today
High -- | Low -- °F
--% Chance of Precip.
Yesterday
High -- | Low -- °F
Precip. -- in
7:38 AM 4:56 PM
Waxing Crescent, 17% visible
Pressure 30.01 in
Visibility 10.0 miles
Clouds Mostly Cloudy 2100 ft
Mostly Cloudy 2700 ft
Overcast 3300 ft
Windchill 32 °F
Dew Point 31 °F
Humidity 73%
Rainfall 0.02 in
Snow Depth Not available.
UV 1 out of 12
Pollen .10 out of 12
Air Quality Not available.
Flu Activity Not available.
METAR KAGC 251553Z 26009G19KT 10SM BKN021 BKN027 OVC033 04/M01 A2997 RMK AO2 PK WND 26029/1519 SLP160 T00391006

More Conditions Fewer Conditions

Pressure 30.01 in
Visibility 10.0 miles
Clouds Mostly Cloudy 2100 ft
Mostly Cloudy 2700 ft
Overcast 3300 ft
Windchill 32 °F
Dew Point 31 °F
Humidity 73%
Rainfall 0.02 in
Snow Depth Not available.
UV 1 out of 12
Pollen .10 out of 12
Air Quality Not available.
Flu Activity Not available.
METAR KAGC 251553Z 26009G19KT 10SM BKN021 BKN027 OVC033 04/M01 A2997 RMK AO2 PK WND 26029/1519 SLP160 T00391006

More Conditions Fewer Conditions

10-Day Weather Forecast

Almanac

Astronomy

Dec. 25, 2014 Rise Set
Actual Time
Civil Twilight
Nautical Twilight
Astronomical Twilight
Moon
Length of Visible Light
Length of Day
Tomorrow will be .
, % of the Moon is Illuminated

Today's Extremes

State Highs State Lows

Community

WunderPhotos

Upload Photos

1,780,315 photos uploaded!

WunderBlogs® & News

Nearby

Air Quality

  Air Quality AQ Index Pollutant
Not available.

Snow Depth

Station Depth Elevation

Earthquake Activity

City Distance Mag. Time & Date
Minimum magnitude displayed is 2.5.

Coastal Water Temperatures

Place Temperature

Nearby Weather Stations